sensor_id;sensor_type;location;lat;lon;timestamp;P1;durP1;ratioP1;P2;durP2;ratioP2
38302;SDS011;24103;42.454;27.400;2023-05-23T00:00:57;6.70;;;6.07;;
38302;SDS011;24103;42.454;27.400;2023-05-23T00:03:24;7.38;;;5.38;;
38302;SDS011;24103;42.454;27.400;2023-05-23T00:05:50;5.35;;;4.85;;
38302;SDS011;24103;42.454;27.400;2023-05-23T00:08:15;10.45;;;5.50;;
38302;SDS011;24103;42.454;27.400;2023-05-23T00:10:42;9.23;;;6.93;;
38302;SDS011;24103;42.454;27.400;2023-05-23T00:13:07;7.57;;;5.30;;
38302;SDS011;24103;42.454;27.400;2023-05-23T00:15:33;7.75;;;4.85;;
38302;SDS011;24103;42.454;27.400;2023-05-23T00:18:01;5.50;;;5.00;;
38302;SDS011;24103;42.454;27.400;2023-05-23T00:20:27;8.68;;;5.45;;
38302;SDS011;24103;42.454;27.400;2023-05-23T00:22:54;8.27;;;5.50;;
38302;SDS011;24103;42.454;27.400;2023-05-23T00:25:23;5.82;;;5.18;;
38302;SDS011;24103;42.454;27.400;2023-05-23T00:27:49;9.80;;;5.70;;
38302;SDS011;24103;42.454;27.400;2023-05-23T00:30:15;6.75;;;5.20;;
38302;SDS011;24103;42.454;27.400;2023-05-23T00:32:40;6.53;;;5.75;;
38302;SDS011;24103;42.454;27.400;2023-05-23T00:35:06;6.60;;;5.28;;
38302;SDS011;24103;42.454;27.400;2023-05-23T00:37:32;9.10;;;6.20;;
38302;SDS011;24103;42.454;27.400;2023-05-23T00:39:58;5.68;;;4.90;;
38302;SDS011;24103;42.454;27.400;2023-05-23T00:42:24;7.60;;;5.22;;
38302;SDS011;24103;42.454;27.400;2023-05-23T00:44:50;5.30;;;4.50;;
38302;SDS011;24103;42.454;27.400;2023-05-23T00:47:15;7.35;;;4.82;;
38302;SDS011;24103;42.454;27.400;2023-05-23T00:49:42;8.05;;;4.97;;
38302;SDS011;24103;42.454;27.400;2023-05-23T00:52:08;6.55;;;4.93;;
38302;SDS011;24103;42.454;27.400;2023-05-23T00:54:34;9.43;;;5.30;;
38302;SDS011;24103;42.454;27.400;2023-05-23T00:57:00;5.20;;;4.40;;
38302;SDS011;24103;42.454;27.400;2023-05-23T00:59:26;6.38;;;5.57;;
38302;SDS011;24103;42.454;27.400;2023-05-23T01:01:53;8.25;;;4.47;;
38302;SDS011;24103;42.454;27.400;2023-05-23T01:04:20;5.40;;;3.90;;
38302;SDS011;24103;42.454;27.400;2023-05-23T01:06:51;6.30;;;4.15;;
38302;SDS011;24103;42.454;27.400;2023-05-23T01:09:19;4.18;;;3.88;;
38302;SDS011;24103;42.454;27.400;2023-05-23T01:17:28;4.22;;;3.65;;
38302;SDS011;24103;42.454;27.400;2023-05-23T01:20:15;5.43;;;3.97;;
38302;SDS011;24103;42.454;27.400;2023-05-23T01:25:53;8.40;;;3.92;;
38302;SDS011;24103;42.454;27.400;2023-05-23T01:28:36;4.63;;;3.35;;
38302;SDS011;24103;42.454;27.400;2023-05-23T01:31:07;6.07;;;3.75;;
38302;SDS011;24103;42.454;27.400;2023-05-23T01:33:35;4.47;;;3.95;;
38302;SDS011;24103;42.454;27.400;2023-05-23T01:36:04;5.88;;;3.33;;
38302;SDS011;24103;42.454;27.400;2023-05-23T01:38:30;7.18;;;3.58;;
38302;SDS011;24103;42.454;27.400;2023-05-23T01:40:56;5.63;;;3.53;;
38302;SDS011;24103;42.454;27.400;2023-05-23T01:43:21;5.13;;;3.65;;
38302;SDS011;24103;42.454;27.400;2023-05-23T01:45:48;5.97;;;3.45;;
38302;SDS011;24103;42.454;27.400;2023-05-23T01:48:16;6.80;;;3.42;;
38302;SDS011;24103;42.454;27.400;2023-05-23T01:50:42;4.38;;;3.67;;
38302;SDS011;24103;42.454;27.400;2023-05-23T01:53:12;3.40;;;3.10;;
38302;SDS011;24103;42.454;27.400;2023-05-23T01:55:40;4.47;;;3.55;;
38302;SDS011;24103;42.454;27.400;2023-05-23T01:58:06;3.85;;;3.45;;
38302;SDS011;24103;42.454;27.400;2023-05-23T02:00:32;6.82;;;3.67;;
38302;SDS011;24103;42.454;27.400;2023-05-23T02:02:58;3.58;;;3.13;;
38302;SDS011;24103;42.454;27.400;2023-05-23T02:05:23;3.28;;;2.97;;
38302;SDS011;24103;42.454;27.400;2023-05-23T02:07:49;3.80;;;3.28;;
38302;SDS011;24103;42.454;27.400;2023-05-23T02:10:14;3.92;;;3.10;;
38302;SDS011;24103;42.454;27.400;2023-05-23T02:12:40;3.90;;;3.13;;
38302;SDS011;24103;42.454;27.400;2023-05-23T02:15:05;3.83;;;3.30;;
38302;SDS011;24103;42.454;27.400;2023-05-23T02:17:31;5.00;;;3.08;;
38302;SDS011;24103;42.454;27.400;2023-05-23T02:19:57;6.68;;;3.67;;
38302;SDS011;24103;42.454;27.400;2023-05-23T02:22:23;4.78;;;3.35;;
38302;SDS011;24103;42.454;27.400;2023-05-23T02:24:49;3.95;;;3.20;;
38302;SDS011;24103;42.454;27.400;2023-05-23T02:27:15;6.70;;;3.47;;
38302;SDS011;24103;42.454;27.400;2023-05-23T02:29:41;4.03;;;3.20;;
38302;SDS011;24103;42.454;27.400;2023-05-23T02:32:06;5.22;;;3.75;;
38302;SDS011;24103;42.454;27.400;2023-05-23T02:34:32;6.93;;;3.85;;
38302;SDS011;24103;42.454;27.400;2023-05-23T02:36:57;5.43;;;4.30;;
38302;SDS011;24103;42.454;27.400;2023-05-23T02:39:23;5.03;;;3.22;;
38302;SDS011;24103;42.454;27.400;2023-05-23T02:41:48;6.93;;;4.35;;
38302;SDS011;24103;42.454;27.400;2023-05-23T02:44:14;5.53;;;4.13;;
38302;SDS011;24103;42.454;27.400;2023-05-23T02:46:39;7.03;;;4.00;;
38302;SDS011;24103;42.454;27.400;2023-05-23T02:49:05;4.47;;;4.07;;
38302;SDS011;24103;42.454;27.400;2023-05-23T02:51:30;5.35;;;4.30;;
38302;SDS011;24103;42.454;27.400;2023-05-23T02:53:56;7.00;;;3.83;;
38302;SDS011;24103;42.454;27.400;2023-05-23T02:56:22;4.22;;;3.38;;
38302;SDS011;24103;42.454;27.400;2023-05-23T02:58:47;10.25;;;3.88;;
38302;SDS011;24103;42.454;27.400;2023-05-23T03:01:13;5.22;;;4.00;;
38302;SDS011;24103;42.454;27.400;2023-05-23T03:03:38;6.28;;;4.13;;
38302;SDS011;24103;42.454;27.400;2023-05-23T03:06:05;6.93;;;5.13;;
38302;SDS011;24103;42.454;27.400;2023-05-23T03:08:31;5.75;;;4.07;;
38302;SDS011;24103;42.454;27.400;2023-05-23T03:10:57;3.90;;;3.50;;
38302;SDS011;24103;42.454;27.400;2023-05-23T03:13:22;5.85;;;3.97;;
38302;SDS011;24103;42.454;27.400;2023-05-23T03:15:48;4.50;;;4.10;;
38302;SDS011;24103;42.454;27.400;2023-05-23T03:18:13;5.50;;;3.55;;
38302;SDS011;24103;42.454;27.400;2023-05-23T03:20:39;5.30;;;3.78;;
38302;SDS011;24103;42.454;27.400;2023-05-23T03:23:04;4.05;;;3.55;;
38302;SDS011;24103;42.454;27.400;2023-05-23T03:25:30;4.68;;;2.80;;
38302;SDS011;24103;42.454;27.400;2023-05-23T03:27:55;4.53;;;3.15;;
38302;SDS011;24103;42.454;27.400;2023-05-23T03:30:20;5.53;;;3.60;;
38302;SDS011;24103;42.454;27.400;2023-05-23T03:32:46;3.30;;;2.97;;
38302;SDS011;24103;42.454;27.400;2023-05-23T03:35:12;4.35;;;3.42;;
38302;SDS011;24103;42.454;27.400;2023-05-23T03:37:37;3.38;;;3.08;;
38302;SDS011;24103;42.454;27.400;2023-05-23T03:40:03;5.00;;;3.10;;
38302;SDS011;24103;42.454;27.400;2023-05-23T03:42:29;5.60;;;3.25;;
38302;SDS011;24103;42.454;27.400;2023-05-23T03:44:54;4.93;;;3.67;;
38302;SDS011;24103;42.454;27.400;2023-05-23T03:47:20;3.53;;;3.22;;
38302;SDS011;24103;42.454;27.400;2023-05-23T03:49:48;3.60;;;3.10;;
38302;SDS011;24103;42.454;27.400;2023-05-23T03:52:13;5.40;;;2.83;;
38302;SDS011;24103;42.454;27.400;2023-05-23T03:54:39;4.88;;;3.20;;
38302;SDS011;24103;42.454;27.400;2023-05-23T03:57:04;6.88;;;3.35;;
38302;SDS011;24103;42.454;27.400;2023-05-23T03:59:30;7.50;;;3.58;;
38302;SDS011;24103;42.454;27.400;2023-05-23T04:01:55;3.40;;;3.10;;
38302;SDS011;24103;42.454;27.400;2023-05-23T04:04:23;3.25;;;2.95;;
38302;SDS011;24103;42.454;27.400;2023-05-23T04:06:49;4.13;;;3.70;;
38302;SDS011;24103;42.454;27.400;2023-05-23T04:09:15;5.13;;;4.15;;
38302;SDS011;24103;42.454;27.400;2023-05-23T04:11:41;6.75;;;3.58;;
38302;SDS011;24103;42.454;27.400;2023-05-23T04:14:07;4.72;;;4.00;;
38302;SDS011;24103;42.454;27.400;2023-05-23T04:16:33;4.35;;;3.55;;
38302;SDS011;24103;42.454;27.400;2023-05-23T04:19:00;7.38;;;3.72;;
38302;SDS011;24103;42.454;27.400;2023-05-23T04:21:26;5.07;;;4.18;;
38302;SDS011;24103;42.454;27.400;2023-05-23T04:23:52;5.82;;;3.40;;
38302;SDS011;24103;42.454;27.400;2023-05-23T04:26:18;6.38;;;3.55;;
38302;SDS011;24103;42.454;27.400;2023-05-23T04:28:45;4.47;;;3.80;;
38302;SDS011;24103;42.454;27.400;2023-05-23T04:31:12;6.85;;;4.88;;
38302;SDS011;24103;42.454;27.400;2023-05-23T04:33:38;6.55;;;4.38;;
38302;SDS011;24103;42.454;27.400;2023-05-23T04:36:04;8.93;;;3.90;;
38302;SDS011;24103;42.454;27.400;2023-05-23T04:38:33;5.85;;;3.75;;
38302;SDS011;24103;42.454;27.400;2023-05-23T04:40:58;4.57;;;3.63;;
38302;SDS011;24103;42.454;27.400;2023-05-23T04:43:24;6.07;;;4.13;;
38302;SDS011;24103;42.454;27.400;2023-05-23T04:45:51;5.22;;;3.63;;
38302;SDS011;24103;42.454;27.400;2023-05-23T04:48:20;5.63;;;3.63;;
38302;SDS011;24103;42.454;27.400;2023-05-23T04:50:48;8.32;;;4.57;;
38302;SDS011;24103;42.454;27.400;2023-05-23T04:53:15;17.02;;;4.10;;
38302;SDS011;24103;42.454;27.400;2023-05-23T04:55:40;4.63;;;3.05;;
38302;SDS011;24103;42.454;27.400;2023-05-23T04:58:06;8.18;;;3.88;;
38302;SDS011;24103;42.454;27.400;2023-05-23T05:00:32;5.63;;;3.45;;
38302;SDS011;24103;42.454;27.400;2023-05-23T05:02:57;4.55;;;3.17;;
38302;SDS011;24103;42.454;27.400;2023-05-23T05:05:22;4.38;;;3.10;;
38302;SDS011;24103;42.454;27.400;2023-05-23T05:07:48;5.85;;;3.67;;
38302;SDS011;24103;42.454;27.400;2023-05-23T05:10:13;7.53;;;3.85;;
38302;SDS011;24103;42.454;27.400;2023-05-23T05:12:44;4.60;;;3.20;;
38302;SDS011;24103;42.454;27.400;2023-05-23T05:15:16;7.65;;;3.38;;
38302;SDS011;24103;42.454;27.400;2023-05-23T05:17:42;5.80;;;3.40;;
38302;SDS011;24103;42.454;27.400;2023-05-23T05:20:08;5.65;;;3.72;;
38302;SDS011;24103;42.454;27.400;2023-05-23T05:22:37;6.32;;;3.55;;
38302;SDS011;24103;42.454;27.400;2023-05-23T05:25:07;5.72;;;2.97;;
38302;SDS011;24103;42.454;27.400;2023-05-23T05:27:33;7.13;;;3.28;;
38302;SDS011;24103;42.454;27.400;2023-05-23T05:30:02;5.97;;;3.03;;
38302;SDS011;24103;42.454;27.400;2023-05-23T05:32:31;4.63;;;3.08;;
38302;SDS011;24103;42.454;27.400;2023-05-23T05:34:58;4.88;;;3.60;;
38302;SDS011;24103;42.454;27.400;2023-05-23T05:37:24;7.07;;;3.42;;
38302;SDS011;24103;42.454;27.400;2023-05-23T05:39:49;7.10;;;3.22;;
38302;SDS011;24103;42.454;27.400;2023-05-23T05:42:15;13.15;;;4.55;;
38302;SDS011;24103;42.454;27.400;2023-05-23T05:44:40;9.05;;;4.28;;
38302;SDS011;24103;42.454;27.400;2023-05-23T05:47:06;6.10;;;4.10;;
38302;SDS011;24103;42.454;27.400;2023-05-23T05:49:31;6.75;;;3.28;;
38302;SDS011;24103;42.454;27.400;2023-05-23T05:51:57;8.07;;;3.85;;
38302;SDS011;24103;42.454;27.400;2023-05-23T05:54:22;7.32;;;3.53;;
38302;SDS011;24103;42.454;27.400;2023-05-23T05:56:48;3.60;;;2.92;;
38302;SDS011;24103;42.454;27.400;2023-05-23T05:59:13;7.90;;;3.63;;
38302;SDS011;24103;42.454;27.400;2023-05-23T06:01:39;9.13;;;4.85;;
38302;SDS011;24103;42.454;27.400;2023-05-23T06:04:04;3.90;;;3.42;;
38302;SDS011;24103;42.454;27.400;2023-05-23T06:06:30;5.40;;;3.13;;
38302;SDS011;24103;42.454;27.400;2023-05-23T06:08:56;8.00;;;3.75;;
38302;SDS011;24103;42.454;27.400;2023-05-23T06:11:22;6.65;;;3.33;;
38302;SDS011;24103;42.454;27.400;2023-05-23T06:13:47;6.40;;;4.38;;
38302;SDS011;24103;42.454;27.400;2023-05-23T06:16:12;6.95;;;3.67;;
38302;SDS011;24103;42.454;27.400;2023-05-23T06:18:39;5.70;;;3.70;;
38302;SDS011;24103;42.454;27.400;2023-05-23T06:21:05;6.50;;;3.78;;
38302;SDS011;24103;42.454;27.400;2023-05-23T06:23:30;9.27;;;3.78;;
38302;SDS011;24103;42.454;27.400;2023-05-23T06:25:57;10.68;;;3.72;;
38302;SDS011;24103;42.454;27.400;2023-05-23T06:28:23;7.35;;;4.10;;
38302;SDS011;24103;42.454;27.400;2023-05-23T06:30:48;9.35;;;3.40;;
38302;SDS011;24103;42.454;27.400;2023-05-23T06:33:14;3.92;;;2.90;;
38302;SDS011;24103;42.454;27.400;2023-05-23T06:35:40;5.40;;;3.15;;
38302;SDS011;24103;42.454;27.400;2023-05-23T06:38:06;9.00;;;3.13;;
38302;SDS011;24103;42.454;27.400;2023-05-23T06:40:31;7.80;;;3.85;;
38302;SDS011;24103;42.454;27.400;2023-05-23T06:42:56;7.30;;;3.88;;
38302;SDS011;24103;42.454;27.400;2023-05-23T06:45:22;6.22;;;4.38;;
38302;SDS011;24103;42.454;27.400;2023-05-23T06:47:47;8.38;;;4.60;;
38302;SDS011;24103;42.454;27.400;2023-05-23T06:50:13;8.13;;;4.20;;
38302;SDS011;24103;42.454;27.400;2023-05-23T06:52:38;5.53;;;3.72;;
38302;SDS011;24103;42.454;27.400;2023-05-23T06:55:06;12.07;;;3.75;;
38302;SDS011;24103;42.454;27.400;2023-05-23T06:57:32;9.07;;;4.00;;
38302;SDS011;24103;42.454;27.400;2023-05-23T06:59:58;8.15;;;3.40;;
38302;SDS011;24103;42.454;27.400;2023-05-23T07:02:23;4.50;;;2.72;;
38302;SDS011;24103;42.454;27.400;2023-05-23T07:04:48;7.93;;;3.83;;
38302;SDS011;24103;42.454;27.400;2023-05-23T07:07:14;5.78;;;3.83;;
38302;SDS011;24103;42.454;27.400;2023-05-23T07:09:39;6.75;;;3.50;;
38302;SDS011;24103;42.454;27.400;2023-05-23T07:12:05;6.10;;;3.60;;
38302;SDS011;24103;42.454;27.400;2023-05-23T07:14:31;6.03;;;3.40;;
38302;SDS011;24103;42.454;27.400;2023-05-23T07:16:56;5.07;;;3.80;;
38302;SDS011;24103;42.454;27.400;2023-05-23T07:19:22;5.22;;;4.10;;
38302;SDS011;24103;42.454;27.400;2023-05-23T07:21:47;5.47;;;4.05;;
38302;SDS011;24103;42.454;27.400;2023-05-23T07:24:12;6.32;;;3.97;;
38302;SDS011;24103;42.454;27.400;2023-05-23T07:26:38;4.22;;;3.60;;
38302;SDS011;24103;42.454;27.400;2023-05-23T07:29:03;7.15;;;3.72;;
38302;SDS011;24103;42.454;27.400;2023-05-23T07:31:29;4.50;;;3.53;;
38302;SDS011;24103;42.454;27.400;2023-05-23T07:33:55;8.40;;;3.25;;
38302;SDS011;24103;42.454;27.400;2023-05-23T07:36:20;6.45;;;3.25;;
38302;SDS011;24103;42.454;27.400;2023-05-23T07:38:46;7.88;;;3.80;;
38302;SDS011;24103;42.454;27.400;2023-05-23T07:41:11;7.68;;;3.58;;
38302;SDS011;24103;42.454;27.400;2023-05-23T07:43:37;10.40;;;4.88;;
38302;SDS011;24103;42.454;27.400;2023-05-23T07:46:02;7.45;;;4.20;;
38302;SDS011;24103;42.454;27.400;2023-05-23T07:48:28;8.20;;;3.60;;
38302;SDS011;24103;42.454;27.400;2023-05-23T07:50:53;6.55;;;3.63;;
38302;SDS011;24103;42.454;27.400;2023-05-23T07:53:20;5.05;;;3.22;;
38302;SDS011;24103;42.454;27.400;2023-05-23T07:55:46;10.90;;;4.43;;
38302;SDS011;24103;42.454;27.400;2023-05-23T07:58:12;18.25;;;3.70;;
38302;SDS011;24103;42.454;27.400;2023-05-23T08:00:37;8.38;;;4.03;;
38302;SDS011;24103;42.454;27.400;2023-05-23T08:03:03;7.70;;;3.47;;
38302;SDS011;24103;42.454;27.400;2023-05-23T08:05:28;4.45;;;4.00;;
38302;SDS011;24103;42.454;27.400;2023-05-23T08:07:54;6.30;;;4.18;;
38302;SDS011;24103;42.454;27.400;2023-05-23T08:10:19;9.52;;;4.10;;
38302;SDS011;24103;42.454;27.400;2023-05-23T08:12:45;9.70;;;4.68;;
38302;SDS011;24103;42.454;27.400;2023-05-23T08:15:10;6.63;;;4.20;;
38302;SDS011;24103;42.454;27.400;2023-05-23T08:17:36;10.70;;;4.18;;
38302;SDS011;24103;42.454;27.400;2023-05-23T08:20:01;5.90;;;3.70;;
38302;SDS011;24103;42.454;27.400;2023-05-23T08:22:29;6.20;;;3.60;;
38302;SDS011;24103;42.454;27.400;2023-05-23T08:24:54;8.50;;;4.25;;
38302;SDS011;24103;42.454;27.400;2023-05-23T08:27:20;5.38;;;3.78;;
38302;SDS011;24103;42.454;27.400;2023-05-23T08:29:45;5.78;;;3.88;;
38302;SDS011;24103;42.454;27.400;2023-05-23T08:32:10;5.95;;;4.38;;
38302;SDS011;24103;42.454;27.400;2023-05-23T08:34:36;10.52;;;5.47;;
38302;SDS011;24103;42.454;27.400;2023-05-23T08:37:01;11.18;;;5.63;;
38302;SDS011;24103;42.454;27.400;2023-05-23T08:39:27;8.65;;;4.72;;
38302;SDS011;24103;42.454;27.400;2023-05-23T08:41:52;9.13;;;5.55;;
38302;SDS011;24103;42.454;27.400;2023-05-23T08:44:18;7.30;;;3.88;;
38302;SDS011;24103;42.454;27.400;2023-05-23T08:46:44;7.75;;;4.20;;
38302;SDS011;24103;42.454;27.400;2023-05-23T08:49:10;5.75;;;3.70;;
38302;SDS011;24103;42.454;27.400;2023-05-23T08:51:41;4.10;;;3.53;;
38302;SDS011;24103;42.454;27.400;2023-05-23T08:54:07;3.97;;;3.20;;
38302;SDS011;24103;42.454;27.400;2023-05-23T08:56:37;8.07;;;3.90;;
38302;SDS011;24103;42.454;27.400;2023-05-23T08:59:03;7.57;;;3.85;;
38302;SDS011;24103;42.454;27.400;2023-05-23T09:01:29;8.02;;;4.47;;
38302;SDS011;24103;42.454;27.400;2023-05-23T09:03:58;8.27;;;4.15;;
38302;SDS011;24103;42.454;27.400;2023-05-23T09:06:28;11.38;;;4.93;;
38302;SDS011;24103;42.454;27.400;2023-05-23T09:08:54;6.00;;;4.15;;
38302;SDS011;24103;42.454;27.400;2023-05-23T09:11:21;7.53;;;4.13;;
38302;SDS011;24103;42.454;27.400;2023-05-23T09:13:48;8.55;;;4.82;;
38302;SDS011;24103;42.454;27.400;2023-05-23T09:16:14;6.65;;;4.43;;
38302;SDS011;24103;42.454;27.400;2023-05-23T09:18:42;7.85;;;4.22;;
38302;SDS011;24103;42.454;27.400;2023-05-23T09:21:08;10.55;;;4.82;;
38302;SDS011;24103;42.454;27.400;2023-05-23T09:23:36;6.40;;;4.47;;
38302;SDS011;24103;42.454;27.400;2023-05-23T09:26:04;9.23;;;4.40;;
38302;SDS011;24103;42.454;27.400;2023-05-23T09:28:34;5.18;;;3.83;;
38302;SDS011;24103;42.454;27.400;2023-05-23T09:31:04;5.80;;;3.80;;
38302;SDS011;24103;42.454;27.400;2023-05-23T09:33:46;10.00;;;3.90;;
38302;SDS011;24103;42.454;27.400;2023-05-23T09:36:13;7.93;;;4.80;;
38302;SDS011;24103;42.454;27.400;2023-05-23T09:38:40;5.82;;;4.10;;
38302;SDS011;24103;42.454;27.400;2023-05-23T09:41:07;7.57;;;5.05;;
38302;SDS011;24103;42.454;27.400;2023-05-23T09:43:33;7.35;;;4.50;;
38302;SDS011;24103;42.454;27.400;2023-05-23T09:46:06;9.40;;;5.18;;
38302;SDS011;24103;42.454;27.400;2023-05-23T09:48:33;8.60;;;5.00;;
38302;SDS011;24103;42.454;27.400;2023-05-23T09:51:02;7.28;;;5.57;;
38302;SDS011;24103;42.454;27.400;2023-05-23T09:53:29;12.27;;;5.75;;
38302;SDS011;24103;42.454;27.400;2023-05-23T09:55:55;9.30;;;5.40;;
38302;SDS011;24103;42.454;27.400;2023-05-23T09:58:26;12.63;;;6.07;;
38302;SDS011;24103;42.454;27.400;2023-05-23T10:00:54;10.07;;;4.97;;
38302;SDS011;24103;42.454;27.400;2023-05-23T10:03:54;8.55;;;4.40;;
38302;SDS011;24103;42.454;27.400;2023-05-23T10:09:06;11.20;;;5.65;;
38302;SDS011;24103;42.454;27.400;2023-05-23T10:14:12;9.00;;;4.20;;
38302;SDS011;24103;42.454;27.400;2023-05-23T10:19:24;6.53;;;3.65;;
38302;SDS011;24103;42.454;27.400;2023-05-23T10:21:57;7.50;;;3.88;;
38302;SDS011;24103;42.454;27.400;2023-05-23T10:24:24;6.72;;;3.45;;
38302;SDS011;24103;42.454;27.400;2023-05-23T10:26:53;9.70;;;4.38;;
38302;SDS011;24103;42.454;27.400;2023-05-23T10:29:22;10.15;;;4.10;;
38302;SDS011;24103;42.454;27.400;2023-05-23T10:31:48;7.63;;;4.18;;
38302;SDS011;24103;42.454;27.400;2023-05-23T10:37:16;11.07;;;6.20;;
38302;SDS011;24103;42.454;27.400;2023-05-23T10:45:44;8.60;;;4.22;;
38302;SDS011;24103;42.454;27.400;2023-05-23T10:51:00;6.63;;;4.68;;
38302;SDS011;24103;42.454;27.400;2023-05-23T10:53:30;11.88;;;4.78;;
38302;SDS011;24103;42.454;27.400;2023-05-23T10:55:56;6.20;;;4.35;;
38302;SDS011;24103;42.454;27.400;2023-05-23T10:58:22;11.35;;;5.63;;
38302;SDS011;24103;42.454;27.400;2023-05-23T11:01:00;10.57;;;6.65;;
38302;SDS011;24103;42.454;27.400;2023-05-23T11:05:59;14.07;;;7.55;;
38302;SDS011;24103;42.454;27.400;2023-05-23T11:08:36;14.70;;;8.20;;
38302;SDS011;24103;42.454;27.400;2023-05-23T11:11:07;6.43;;;5.72;;
38302;SDS011;24103;42.454;27.400;2023-05-23T11:16:27;11.27;;;7.68;;
38302;SDS011;24103;42.454;27.400;2023-05-23T11:21:54;10.80;;;7.78;;
38302;SDS011;24103;42.454;27.400;2023-05-23T11:24:21;9.45;;;6.45;;
38302;SDS011;24103;42.454;27.400;2023-05-23T11:26:53;11.35;;;6.13;;
38302;SDS011;24103;42.454;27.400;2023-05-23T11:29:29;10.02;;;6.68;;
38302;SDS011;24103;42.454;27.400;2023-05-23T11:31:55;10.82;;;5.90;;
38302;SDS011;24103;42.454;27.400;2023-05-23T11:34:21;8.43;;;5.78;;
38302;SDS011;24103;42.454;27.400;2023-05-23T11:36:53;10.63;;;6.43;;
38302;SDS011;24103;42.454;27.400;2023-05-23T11:39:19;8.63;;;5.50;;
38302;SDS011;24103;42.454;27.400;2023-05-23T11:41:49;7.40;;;5.10;;
38302;SDS011;24103;42.454;27.400;2023-05-23T11:44:27;7.40;;;4.60;;
38302;SDS011;24103;42.454;27.400;2023-05-23T11:49:35;12.48;;;4.57;;
38302;SDS011;24103;42.454;27.400;2023-05-23T11:52:04;8.70;;;4.13;;
38302;SDS011;24103;42.454;27.400;2023-05-23T11:54:31;10.20;;;5.25;;
38302;SDS011;24103;42.454;27.400;2023-05-23T11:56:57;6.55;;;4.93;;
38302;SDS011;24103;42.454;27.400;2023-05-23T11:59:24;10.85;;;5.05;;
38302;SDS011;24103;42.454;27.400;2023-05-23T12:01:51;5.55;;;3.50;;
38302;SDS011;24103;42.454;27.400;2023-05-23T12:04:16;10.45;;;4.28;;
38302;SDS011;24103;42.454;27.400;2023-05-23T12:06:45;7.13;;;4.88;;
38302;SDS011;24103;42.454;27.400;2023-05-23T12:09:11;6.28;;;4.40;;
38302;SDS011;24103;42.454;27.400;2023-05-23T12:11:38;4.88;;;3.75;;
38302;SDS011;24103;42.454;27.400;2023-05-23T12:14:05;10.75;;;5.03;;
38302;SDS011;24103;42.454;27.400;2023-05-23T12:16:32;6.00;;;4.03;;
38302;SDS011;24103;42.454;27.400;2023-05-23T12:18:58;7.05;;;3.63;;
38302;SDS011;24103;42.454;27.400;2023-05-23T12:21:25;11.90;;;4.75;;
38302;SDS011;24103;42.454;27.400;2023-05-23T12:24:10;4.78;;;4.18;;
38302;SDS011;24103;42.454;27.400;2023-05-23T12:29:13;5.63;;;4.47;;
38302;SDS011;24103;42.454;27.400;2023-05-23T12:31:39;13.38;;;5.97;;
38302;SDS011;24103;42.454;27.400;2023-05-23T12:34:04;10.43;;;6.03;;
38302;SDS011;24103;42.454;27.400;2023-05-23T12:36:30;11.32;;;7.20;;
38302;SDS011;24103;42.454;27.400;2023-05-23T12:39:04;10.63;;;7.22;;
38302;SDS011;24103;42.454;27.400;2023-05-23T12:41:31;10.10;;;5.73;;
38302;SDS011;24103;42.454;27.400;2023-05-23T12:43:58;10.88;;;7.55;;
38302;SDS011;24103;42.454;27.400;2023-05-23T12:46:25;14.32;;;10.52;;
38302;SDS011;24103;42.454;27.400;2023-05-23T12:48:51;15.73;;;10.35;;
38302;SDS011;24103;42.454;27.400;2023-05-23T12:51:18;13.77;;;11.45;;
38302;SDS011;24103;42.454;27.400;2023-05-23T12:53:44;19.08;;;13.40;;
38302;SDS011;24103;42.454;27.400;2023-05-23T12:56:09;17.63;;;12.15;;
38302;SDS011;24103;42.454;27.400;2023-05-23T12:58:35;18.92;;;14.35;;
38302;SDS011;24103;42.454;27.400;2023-05-23T13:01:01;15.35;;;10.63;;
38302;SDS011;24103;42.454;27.400;2023-05-23T13:03:27;15.75;;;10.63;;
38302;SDS011;24103;42.454;27.400;2023-05-23T13:05:55;14.95;;;12.73;;
38302;SDS011;24103;42.454;27.400;2023-05-23T13:08:21;11.48;;;9.50;;
38302;SDS011;24103;42.454;27.400;2023-05-23T13:10:51;11.13;;;10.00;;
38302;SDS011;24103;42.454;27.400;2023-05-23T13:13:18;11.25;;;8.88;;
38302;SDS011;24103;42.454;27.400;2023-05-23T13:15:43;25.95;;;10.45;;
38302;SDS011;24103;42.454;27.400;2023-05-23T13:18:09;12.05;;;9.30;;
38302;SDS011;24103;42.454;27.400;2023-05-23T13:20:34;7.88;;;7.05;;
38302;SDS011;24103;42.454;27.400;2023-05-23T13:23:00;9.23;;;7.90;;
38302;SDS011;24103;42.454;27.400;2023-05-23T13:25:25;8.10;;;7.30;;
38302;SDS011;24103;42.454;27.400;2023-05-23T13:27:51;8.50;;;6.93;;
38302;SDS011;24103;42.454;27.400;2023-05-23T13:30:17;7.90;;;7.10;;
38302;SDS011;24103;42.454;27.400;2023-05-23T13:32:44;6.95;;;6.28;;
38302;SDS011;24103;42.454;27.400;2023-05-23T13:35:10;6.22;;;5.32;;
38302;SDS011;24103;42.454;27.400;2023-05-23T13:37:36;6.55;;;5.60;;
38302;SDS011;24103;42.454;27.400;2023-05-23T13:40:02;6.80;;;5.05;;
38302;SDS011;24103;42.454;27.400;2023-05-23T13:42:28;6.47;;;5.60;;
38302;SDS011;24103;42.454;27.400;2023-05-23T13:44:54;5.28;;;4.60;;
38302;SDS011;24103;42.454;27.400;2023-05-23T13:47:20;7.97;;;6.70;;
38302;SDS011;24103;42.454;27.400;2023-05-23T13:49:45;7.60;;;6.18;;
38302;SDS011;24103;42.454;27.400;2023-05-23T13:52:11;7.45;;;6.68;;
38302;SDS011;24103;42.454;27.400;2023-05-23T13:54:37;9.93;;;7.03;;
38302;SDS011;24103;42.454;27.400;2023-05-23T13:57:03;8.13;;;5.70;;
38302;SDS011;24103;42.454;27.400;2023-05-23T13:59:29;6.25;;;5.65;;
38302;SDS011;24103;42.454;27.400;2023-05-23T14:01:54;12.85;;;7.68;;
38302;SDS011;24103;42.454;27.400;2023-05-23T14:04:20;8.93;;;6.40;;
38302;SDS011;24103;42.454;27.400;2023-05-23T14:06:46;14.32;;;7.88;;
38302;SDS011;24103;42.454;27.400;2023-05-23T14:09:11;10.57;;;5.93;;
38302;SDS011;24103;42.454;27.400;2023-05-23T14:11:37;10.95;;;5.80;;
38302;SDS011;24103;42.454;27.400;2023-05-23T14:14:03;11.10;;;6.32;;
38302;SDS011;24103;42.454;27.400;2023-05-23T14:16:29;7.97;;;5.32;;
38302;SDS011;24103;42.454;27.400;2023-05-23T14:18:55;10.15;;;6.20;;
38302;SDS011;24103;42.454;27.400;2023-05-23T14:21:20;9.23;;;5.05;;
38302;SDS011;24103;42.454;27.400;2023-05-23T14:23:45;9.32;;;6.38;;
38302;SDS011;24103;42.454;27.400;2023-05-23T14:26:11;12.30;;;5.88;;
38302;SDS011;24103;42.454;27.400;2023-05-23T14:28:37;8.00;;;6.40;;
38302;SDS011;24103;42.454;27.400;2023-05-23T14:31:02;9.50;;;7.00;;
38302;SDS011;24103;42.454;27.400;2023-05-23T14:33:28;9.98;;;6.45;;
38302;SDS011;24103;42.454;27.400;2023-05-23T14:35:53;8.70;;;6.65;;
38302;SDS011;24103;42.454;27.400;2023-05-23T14:38:19;6.45;;;5.25;;
38302;SDS011;24103;42.454;27.400;2023-05-23T14:40:44;10.75;;;6.10;;
38302;SDS011;24103;42.454;27.400;2023-05-23T14:43:11;7.88;;;5.18;;
38302;SDS011;24103;42.454;27.400;2023-05-23T14:45:36;10.02;;;5.57;;
38302;SDS011;24103;42.454;27.400;2023-05-23T14:48:03;6.05;;;5.20;;
38302;SDS011;24103;42.454;27.400;2023-05-23T14:50:29;6.45;;;5.75;;
38302;SDS011;24103;42.454;27.400;2023-05-23T14:52:55;5.65;;;4.97;;
38302;SDS011;24103;42.454;27.400;2023-05-23T14:55:20;5.75;;;4.40;;
38302;SDS011;24103;42.454;27.400;2023-05-23T14:57:46;6.03;;;4.93;;
38302;SDS011;24103;42.454;27.400;2023-05-23T15:00:11;9.60;;;5.45;;
38302;SDS011;24103;42.454;27.400;2023-05-23T15:02:37;7.47;;;5.00;;
38302;SDS011;24103;42.454;27.400;2023-05-23T15:05:03;8.45;;;5.32;;
38302;SDS011;24103;42.454;27.400;2023-05-23T15:07:29;5.80;;;4.88;;
38302;SDS011;24103;42.454;27.400;2023-05-23T15:09:56;5.13;;;4.20;;